Falls International Airport
KINL : now visible

Airfield :











YOU CAN JOIN US ON...

 
LOGIN :

Register | Disclaimer

   EN    FR    IT 

 









Legend :    VFR   Marginal VFR   IFR   Intensive IFR   Very Intensive IFR
Visi :
Ceiling :
>= 8 km
>= 3000ft
5 to 8 km
1000 to 3000 ft
1500m to 5 km
500 to 1000 ft
800 to 1500m
200 to 500 ft
< 800m
< 200 ft
Symbols :   Thunderstorms  Fog  Heavy snow  Heavy precipitations  Wind > 20 kt







- Airport Elevation : 1185 ft
- IATA code : INL


KINL - Falls International

CURRENT METAR :
  • 181055Z AUTO 00000KT 2SM BR CLR 17/17 A2963 RMK AO2 VIS 1/2 RWY 31 SLP033 T01720172

EXPIRED METARs :
  • 181032Z AUTO 00000KT 2 1/2SM BR CLR 17/17 A2965 RMK AO2 T01720172
  • 180955Z AUTO 20003KT 4SM BR CLR 17/17 A2963 RMK AO2 VIS 3/4 RWY 31 SLP033 T01670167
  • 180855Z AUTO 00000KT 5SM BR CLR 16/16 A2963 RMK AO2 VIS 1/2 RWY 31 SLP031 T01610156 58012

TAF KINL
Valid from the 18 at 06:00 until the 19 at 06:00 UTC


180535Z 1806/1906 22003KT 6SM BR SCT100
TEMPO 1806/1808 3SM BR
FM180900 22005KT 5SM BR SCT100
TEMPO 1809/1812 1SM BR SCT003
FM181300 22007KT P6SM BKN090
FM181800 24010G18KT P6SM VCSH SCT030
FM190000 24005KT P6SM SCT040
KZMP FIR / North America



MET'MAP, your aeronautical weather chart ! - Copyright ORBIFLY December 2007 - Disclaimer

ORBIFLY MET'MAP TEAM :

Programming & Development : Alexandra Zaïnal
Concept & Development : Baudouin d'Aumeries
Co-Development & Prog : Marc-Olivier Méhu
Technical & hardware support : Manuel Goepfert

Contact : metmap@orbifly.com




SOURCES & CREDITS :

   NOAA       Earth
Advisory